Accueil
METAR-TAF:

METAR-TAF

Aéroports :

Lugano, Suisse

Aéroport de Lugano

latitude: 46-00N, longitude: 008-58E, altitude: 273 m

Observation

Le bulletin a été fait il y a 16 minutes, à 03:20 UTC
Vent 3 kt de nord
Température 8°C
Humidité 100%
Pression 1019 hPa
Visibilité: 1700 m
brume

METAR: LSZA 190320Z AUTO 01003KT 1700 BR NCD 08/08 Q1019

Heure: 05:36 (03:36 UTC)

Prévision

Le bulletin a été fait il y a 1 heure et 11 minutes, à 02:25 UTC
Prévision valable du 19 à 03 UTC au 19 à 12 UTC
Vent 3 kt de direction variable
Visibilité: 2000 m
brume
Probabilité 40%
du 19 à 03 UTC au 19 à 07 UTC
Visibilité: 0500 m
à une hauteur de 200 ft
brouillard
Evoluant progressivement
du 19 à 06 UTC au 19 à 08 UTC
Visibilité: 4000 m
brume
Evoluant progressivement
du 19 à 08 UTC au 19 à 11 UTC
Visibilité: 8000 m

TAF: LSZA 190225Z 1903/1912 VRB03KT 2000 BR NSC PROB40 1903/1907 0500 FG VV002 BECMG 1906/1908 4000 BR BECMG 1908/1911 8000

Observations et prévisions météorologiques de plus de 4000 aéroports (messages METAR et TAF).

Les stations disponibles sont représentées par des disques jaunes et rouges sur la carte.

Passer la souris dessus pour voir le nom de la station.

Cliquer dessus pour voir les observations et prévisions météorologiques.

Pour changer de carte: cliquez sur les boutons verts avec une croix noire pour zoomer, sur le bouton vert avec un tiret pour effectuer un zoom arrière, ou sur les flèches vertes pour les cartes adjacentes.


METAR-TAF: